No particular awareness of the weather is required.    There are no Weather-warnings

Webcam Vacarisses more information Webcam Vacarisses


Thunder radar more information blitzortung!


Rain radar more information rain snow radar


Visit our other weather sites:

Template documentation
and downloads

And another site



Nearby METAR Reports

   
EBAW - Antwerp
Updated: 22-10-2018 01:20
Overcast  
Overcast  
   Wind: Calm
Wind: Calm
Temperature: 11°C
Dew Point: 8°C
Humidity: 82%
Barometer: 1027 hPa
Clouds: Overcast
Visibility: 8 km
Cloud details: Overcast 4800 ft
EBAW 212320Z AUTO 00000KT 8000 // OVC048/// 11/08 Q1027
EBLG - Li├Ęge
Updated: 22-10-2018 01:20
Partly Cloudy  
Partly Cloudy  
   Wind: varies 3.7 km/h
Wind: varies 3.7 km/h
Temperature: 11°C
Dew Point: 7°C
Humidity: 77%
Barometer: 1027 hPa
Clouds: Partly Cloudy
Visibility: 7 km
Cloud details: Partly Cloudy 3000 ft
EBLG 212320Z VRB02KT 7000 SCT030 11/07 Q1027 NOSIG
EBCV - Mons/Bergen
Updated: 22-10-2018 01:25
Mist, Clear  
Mist, Clear  
   Wind: varies 1.9 km/h
Wind: varies 1.9 km/h
Temperature: 8°C
Dew Point: 7°C
Humidity: 93%
Barometer: 1028 hPa
Clouds: Clear
Visibility: 2 km
Cloud details: Clear
EBCV 212325Z AUTO VRB01KT 2100 BR NCD 08/07 Q1028 YLO
EHBK - Maastricht
Updated: 22-10-2018 01:25
Overcast  
Overcast  
   Wind: South 7.4 km/h
Wind: South 7.4 km/h
Temperature: 10°C
Wind Chill: 9°C
Dew Point: 7°C
Humidity: 82%
Barometer: 1027 hPa
Clouds: Overcast
Visibility: More than 10 km
Cloud details: Few Clouds 2500 ft,
Overcast 3000 ft
EHBK 212325Z AUTO 19004KT 9999 FEW025 OVC030 10/07 Q1027
ELLX - Luxemburg
Updated: 22-10-2018 01:20
Clear  
Clear  
   Wind: NNE 13 km/h
Wind: NNE 13 km/h
Temperature: 9°C
Wind Chill: 7°C
Dew Point: 4°C
Humidity: 71%
Barometer: 1026 hPa
Clouds: Clear
Visibility: More than 10 km
Cloud details: Clear
ELLX 212320Z AUTO 03007KT 9999 NCD 09/04 Q1026 NOSIG
EBOS - Oostende
Updated: 22-10-2018 01:20
Mist, Partly Cloudy  
Mist, Partly Cloudy  
   Wind: NNE 13 km/h
Wind: NNE 13 km/h
Temperature: 12°C
Dew Point: 10°C
Humidity: 88%
Barometer: 1028 hPa
Clouds: Partly Cloudy
Visibility: 5 km
Cloud details: Partly Cloudy 1500 ft,
Partly Cloudy 3000 ft
EBOS 212320Z 02007KT 340V040 4500 BR SCT015 SCT030 12/10 Q1028 BECMG 02017KT

Script developed by  Saratoga-weather.org Adapted for the template by  Weerstation Leuven

You find our weather info also at:

UK Metoffice

European Weather Network

WeatherCloud

Weather Underground

AWEKAS

WeatherlinkIP

Citizen Weather Observer Program (CWOP)

HAMweather, WeatherForYou, PWS Weather

Equipment we use:

Weather-station
Davis Vantage Vue

Weather-program
Weather Display

Weather-server
My Computer

Provider
My provider

Davis Vantage Vue

Weather Display

My Computer

My provider